sensor_id;sensor_type;location;lat;lon;timestamp;P1;durP1;ratioP1;P2;durP2;ratioP2
25437;SDS011;13364;49.084;9.978;2024-02-15T05:02:14;2.80;;;1.17;;
25437;SDS011;13364;49.084;9.978;2024-02-15T05:04:41;1.45;;;1.00;;
25437;SDS011;13364;49.084;9.978;2024-02-15T05:07:09;2.63;;;1.20;;
25437;SDS011;13364;49.084;9.978;2024-02-15T05:09:36;1.45;;;1.00;;
25437;SDS011;13364;49.084;9.978;2024-02-15T05:12:03;1.60;;;0.90;;
25437;SDS011;13364;49.084;9.978;2024-02-15T05:14:31;1.52;;;1.05;;
25437;SDS011;13364;49.084;9.978;2024-02-15T05:16:59;1.83;;;0.75;;
25437;SDS011;13364;49.084;9.978;2024-02-15T05:19:27;2.30;;;1.00;;
25437;SDS011;13364;49.084;9.978;2024-02-15T05:21:54;2.17;;;1.08;;
25437;SDS011;13364;49.084;9.978;2024-02-15T05:24:21;2.72;;;1.00;;
25437;SDS011;13364;49.084;9.978;2024-02-15T05:26:48;3.95;;;1.23;;
25437;SDS011;13364;49.084;9.978;2024-02-15T05:29:16;2.20;;;1.20;;
25437;SDS011;13364;49.084;9.978;2024-02-15T05:31:43;1.20;;;1.10;;
25437;SDS011;13364;49.084;9.978;2024-02-15T05:34:11;2.15;;;0.85;;
25437;SDS011;13364;49.084;9.978;2024-02-15T05:36:38;1.10;;;1.00;;
25437;SDS011;13364;49.084;9.978;2024-02-15T05:39:05;2.35;;;1.05;;
25437;SDS011;13364;49.084;9.978;2024-02-15T05:41:34;1.75;;;1.20;;
25437;SDS011;13364;49.084;9.978;2024-02-15T05:44:01;2.78;;;1.30;;
25437;SDS011;13364;49.084;9.978;2024-02-15T05:46:32;4.55;;;1.27;;
25437;SDS011;13364;49.084;9.978;2024-02-15T05:49:03;1.67;;;1.42;;
25437;SDS011;13364;49.084;9.978;2024-02-15T05:51:31;2.75;;;1.90;;
25437;SDS011;13364;49.084;9.978;2024-02-15T05:54:00;2.03;;;1.55;;
25437;SDS011;13364;49.084;9.978;2024-02-15T05:56:27;4.68;;;1.58;;
25437;SDS011;13364;49.084;9.978;2024-02-15T05:58:55;3.45;;;1.92;;
25437;SDS011;13364;49.084;9.978;2024-02-15T06:01:23;3.92;;;2.53;;
25437;SDS011;13364;49.084;9.978;2024-02-15T06:03:50;3.47;;;2.55;;
25437;SDS011;13364;49.084;9.978;2024-02-15T06:06:21;5.25;;;2.15;;
25437;SDS011;13364;49.084;9.978;2024-02-15T06:08:49;3.70;;;2.35;;
25437;SDS011;13364;49.084;9.978;2024-02-15T06:11:18;4.05;;;2.15;;
25437;SDS011;13364;49.084;9.978;2024-02-15T06:13:47;3.47;;;2.35;;
25437;SDS011;13364;49.084;9.978;2024-02-15T06:16:13;8.80;;;4.45;;
25437;SDS011;13364;49.084;9.978;2024-02-15T06:18:40;14.73;;;6.63;;
25437;SDS011;13364;49.084;9.978;2024-02-15T06:21:07;6.28;;;3.67;;
25437;SDS011;13364;49.084;9.978;2024-02-15T06:23:35;5.82;;;2.70;;
25437;SDS011;13364;49.084;9.978;2024-02-15T06:26:03;3.33;;;2.42;;
25437;SDS011;13364;49.084;9.978;2024-02-15T06:28:30;6.85;;;3.97;;
25437;SDS011;13364;49.084;9.978;2024-02-15T06:31:15;8.80;;;3.25;;
25437;SDS011;13364;49.084;9.978;2024-02-15T06:34:00;3.60;;;2.20;;
25437;SDS011;13364;49.084;9.978;2024-02-15T06:36:47;3.55;;;2.22;;
25437;SDS011;13364;49.084;9.978;2024-02-15T06:39:33;6.05;;;2.40;;
25437;SDS011;13364;49.084;9.978;2024-02-15T06:42:10;3.35;;;2.50;;
25437;SDS011;13364;49.084;9.978;2024-02-15T06:44:41;2.15;;;1.48;;
25437;SDS011;13364;49.084;9.978;2024-02-15T06:47:09;2.17;;;1.42;;
25437;SDS011;13364;49.084;9.978;2024-02-15T06:49:37;1.92;;;1.80;;
25437;SDS011;13364;49.084;9.978;2024-02-15T06:52:08;3.83;;;2.10;;
25437;SDS011;13364;49.084;9.978;2024-02-15T06:54:35;4.78;;;1.92;;
25437;SDS011;13364;49.084;9.978;2024-02-15T06:57:02;1.70;;;1.60;;
25437;SDS011;13364;49.084;9.978;2024-02-15T06:59:31;3.90;;;1.25;;
25437;SDS011;13364;49.084;9.978;2024-02-15T07:01:58;3.25;;;1.60;;
25437;SDS011;13364;49.084;9.978;2024-02-15T07:04:26;2.95;;;1.98;;
25437;SDS011;13364;49.084;9.978;2024-02-15T07:06:53;3.83;;;1.88;;
25437;SDS011;13364;49.084;9.978;2024-02-15T07:09:23;3.97;;;1.60;;
25437;SDS011;13364;49.084;9.978;2024-02-15T07:11:54;5.75;;;2.00;;
25437;SDS011;13364;49.084;9.978;2024-02-15T07:14:21;1.75;;;1.38;;
25437;SDS011;13364;49.084;9.978;2024-02-15T07:16:48;3.72;;;1.50;;
25437;SDS011;13364;49.084;9.978;2024-02-15T07:19:18;2.25;;;1.38;;
25437;SDS011;13364;49.084;9.978;2024-02-15T07:21:45;2.60;;;1.42;;
25437;SDS011;13364;49.084;9.978;2024-02-15T07:24:13;2.28;;;1.33;;
25437;SDS011;13364;49.084;9.978;2024-02-15T07:26:40;1.52;;;1.30;;
25437;SDS011;13364;49.084;9.978;2024-02-15T07:29:07;2.00;;;1.10;;
25437;SDS011;13364;49.084;9.978;2024-02-15T07:31:34;3.47;;;1.42;;
25437;SDS011;13364;49.084;9.978;2024-02-15T07:34:02;6.15;;;2.05;;
25437;SDS011;13364;49.084;9.978;2024-02-15T07:36:30;5.00;;;2.53;;
25437;SDS011;13364;49.084;9.978;2024-02-15T07:38:57;3.08;;;1.88;;
25437;SDS011;13364;49.084;9.978;2024-02-15T07:41:27;1.63;;;1.20;;
25437;SDS011;13364;49.084;9.978;2024-02-15T07:43:54;0.95;;;0.95;;
25437;SDS011;13364;49.084;9.978;2024-02-15T07:46:22;4.38;;;1.30;;
25437;SDS011;13364;49.084;9.978;2024-02-15T07:48:50;1.73;;;1.25;;
25437;SDS011;13364;49.084;9.978;2024-02-15T07:51:18;3.40;;;1.70;;
25437;SDS011;13364;49.084;9.978;2024-02-15T07:53:46;4.30;;;2.10;;
25437;SDS011;13364;49.084;9.978;2024-02-15T07:56:14;2.63;;;1.42;;
25437;SDS011;13364;49.084;9.978;2024-02-15T07:58:48;5.18;;;1.40;;
25437;SDS011;13364;49.084;9.978;2024-02-15T08:01:20;3.28;;;1.08;;
25437;SDS011;13364;49.084;9.978;2024-02-15T08:03:51;1.70;;;0.90;;
25437;SDS011;13364;49.084;9.978;2024-02-15T08:06:20;1.40;;;0.98;;
25437;SDS011;13364;49.084;9.978;2024-02-15T08:08:50;5.18;;;1.30;;
25437;SDS011;13364;49.084;9.978;2024-02-15T08:11:18;3.88;;;1.40;;
25437;SDS011;13364;49.084;9.978;2024-02-15T08:13:46;2.22;;;1.23;;
25437;SDS011;13364;49.084;9.978;2024-02-15T08:16:17;2.95;;;1.27;;
25437;SDS011;13364;49.084;9.978;2024-02-15T08:18:45;1.90;;;1.20;;
25437;SDS011;13364;49.084;9.978;2024-02-15T08:21:13;1.77;;;1.20;;
25437;SDS011;13364;49.084;9.978;2024-02-15T08:23:41;2.10;;;0.95;;
25437;SDS011;13364;49.084;9.978;2024-02-15T08:26:08;3.08;;;1.05;;
25437;SDS011;13364;49.084;9.978;2024-02-15T08:28:37;3.95;;;1.33;;
25437;SDS011;13364;49.084;9.978;2024-02-15T08:31:04;3.10;;;1.20;;
25437;SDS011;13364;49.084;9.978;2024-02-15T08:33:31;1.52;;;0.93;;
25437;SDS011;13364;49.084;9.978;2024-02-15T08:35:58;2.70;;;1.17;;
25437;SDS011;13364;49.084;9.978;2024-02-15T08:40:55;2.95;;;1.30;;
25437;SDS011;13364;49.084;9.978;2024-02-15T08:43:22;1.08;;;0.90;;
25437;SDS011;13364;49.084;9.978;2024-02-15T08:45:49;2.33;;;1.25;;
25437;SDS011;13364;49.084;9.978;2024-02-15T08:48:16;3.03;;;1.40;;
25437;SDS011;13364;49.084;9.978;2024-02-15T08:50:44;2.92;;;1.25;;
25437;SDS011;13364;49.084;9.978;2024-02-15T08:53:12;3.22;;;1.38;;
25437;SDS011;13364;49.084;9.978;2024-02-15T08:55:41;1.10;;;1.00;;
25437;SDS011;13364;49.084;9.978;2024-02-15T08:58:08;3.22;;;1.75;;
25437;SDS011;13364;49.084;9.978;2024-02-15T09:00:35;1.63;;;0.98;;
25437;SDS011;13364;49.084;9.978;2024-02-15T09:03:03;1.48;;;1.02;;
25437;SDS011;13364;49.084;9.978;2024-02-15T09:05:31;2.83;;;1.17;;
25437;SDS011;13364;49.084;9.978;2024-02-15T09:07:57;1.60;;;1.20;;
25437;SDS011;13364;49.084;9.978;2024-02-15T09:10:24;1.30;;;1.05;;
25437;SDS011;13364;49.084;9.978;2024-02-15T09:12:52;1.83;;;0.82;;
25437;SDS011;13364;49.084;9.978;2024-02-15T09:15:19;3.42;;;1.33;;
25437;SDS011;13364;49.084;9.978;2024-02-15T09:17:48;2.67;;;1.20;;
25437;SDS011;13364;49.084;9.978;2024-02-15T09:20:15;1.23;;;0.82;;
25437;SDS011;13364;49.084;9.978;2024-02-15T09:22:49;4.05;;;1.90;;
25437;SDS011;13364;49.084;9.978;2024-02-15T09:25:17;2.67;;;1.17;;
25437;SDS011;13364;49.084;9.978;2024-02-15T09:27:45;4.63;;;1.52;;
25437;SDS011;13364;49.084;9.978;2024-02-15T09:30:12;2.25;;;0.93;;
25437;SDS011;13364;49.084;9.978;2024-02-15T09:32:39;2.65;;;1.13;;
25437;SDS011;13364;49.084;9.978;2024-02-15T09:35:07;2.22;;;1.10;;
25437;SDS011;13364;49.084;9.978;2024-02-15T09:37:35;5.63;;;1.50;;
25437;SDS011;13364;49.084;9.978;2024-02-15T09:40:09;2.20;;;1.00;;
25437;SDS011;13364;49.084;9.978;2024-02-15T09:42:37;1.05;;;0.73;;
25437;SDS011;13364;49.084;9.978;2024-02-15T09:45:06;1.90;;;1.00;;
25437;SDS011;13364;49.084;9.978;2024-02-15T09:47:37;4.30;;;2.70;;
25437;SDS011;13364;49.084;9.978;2024-02-15T09:52:44;4.28;;;1.13;;
25437;SDS011;13364;49.084;9.978;2024-02-15T09:55:12;20.48;;;8.93;;
25437;SDS011;13364;49.084;9.978;2024-02-15T09:57:44;1.23;;;0.73;;
25437;SDS011;13364;49.084;9.978;2024-02-15T10:00:15;3.25;;;0.77;;
25437;SDS011;13364;49.084;9.978;2024-02-15T10:02:44;1.40;;;0.88;;
25437;SDS011;13364;49.084;9.978;2024-02-15T10:05:13;1.92;;;0.90;;
25437;SDS011;13364;49.084;9.978;2024-02-15T10:07:40;0.60;;;0.60;;
25437;SDS011;13364;49.084;9.978;2024-02-15T10:10:20;1.20;;;0.70;;
25437;SDS011;13364;49.084;9.978;2024-02-15T10:12:47;2.45;;;0.60;;
25437;SDS011;13364;49.084;9.978;2024-02-15T10:18:00;3.10;;;1.00;;
25437;SDS011;13364;49.084;9.978;2024-02-15T10:20:30;1.48;;;0.80;;
25437;SDS011;13364;49.084;9.978;2024-02-15T10:25:35;2.03;;;0.88;;
25437;SDS011;13364;49.084;9.978;2024-02-15T10:28:07;1.30;;;0.70;;
25437;SDS011;13364;49.084;9.978;2024-02-15T10:30:35;3.17;;;0.90;;
25437;SDS011;13364;49.084;9.978;2024-02-15T10:33:03;2.58;;;0.90;;
25437;SDS011;13364;49.084;9.978;2024-02-15T10:35:31;1.50;;;0.82;;
25437;SDS011;13364;49.084;9.978;2024-02-15T10:38:11;1.42;;;1.00;;
25437;SDS011;13364;49.084;9.978;2024-02-15T10:40:42;3.92;;;1.60;;
25437;SDS011;13364;49.084;9.978;2024-02-15T10:43:10;0.90;;;0.85;;
25437;SDS011;13364;49.084;9.978;2024-02-15T10:45:40;2.55;;;1.10;;
25437;SDS011;13364;49.084;9.978;2024-02-15T10:48:08;1.75;;;1.30;;
25437;SDS011;13364;49.084;9.978;2024-02-15T10:50:39;1.20;;;0.73;;
25437;SDS011;13364;49.084;9.978;2024-02-15T10:58:38;1.85;;;0.70;;
25437;SDS011;13364;49.084;9.978;2024-02-15T11:01:16;0.60;;;0.60;;
25437;SDS011;13364;49.084;9.978;2024-02-15T11:03:54;3.70;;;1.10;;
25437;SDS011;13364;49.084;9.978;2024-02-15T11:06:26;0.80;;;0.68;;
25437;SDS011;13364;49.084;9.978;2024-02-15T11:09:00;1.38;;;0.70;;
25437;SDS011;13364;49.084;9.978;2024-02-15T11:11:29;2.25;;;0.55;;
25437;SDS011;13364;49.084;9.978;2024-02-15T11:16:53;0.73;;;0.50;;
25437;SDS011;13364;49.084;9.978;2024-02-15T11:22:01;2.50;;;0.77;;
25437;SDS011;13364;49.084;9.978;2024-02-15T11:24:36;1.27;;;0.50;;
25437;SDS011;13364;49.084;9.978;2024-02-15T11:27:04;3.03;;;0.70;;
25437;SDS011;13364;49.084;9.978;2024-02-15T11:32:39;1.00;;;0.52;;
25437;SDS011;13364;49.084;9.978;2024-02-15T11:35:12;1.45;;;0.70;;
25437;SDS011;13364;49.084;9.978;2024-02-15T11:42:51;1.45;;;0.82;;
25437;SDS011;13364;49.084;9.978;2024-02-15T11:45:26;2.92;;;0.50;;
25437;SDS011;13364;49.084;9.978;2024-02-15T11:48:13;2.47;;;0.70;;
25437;SDS011;13364;49.084;9.978;2024-02-15T11:50:41;1.73;;;0.75;;
25437;SDS011;13364;49.084;9.978;2024-02-15T11:53:08;1.23;;;0.73;;
25437;SDS011;13364;49.084;9.978;2024-02-15T11:55:38;0.65;;;0.60;;
25437;SDS011;13364;49.084;9.978;2024-02-15T11:58:07;2.53;;;1.00;;
25437;SDS011;13364;49.084;9.978;2024-02-15T12:00:34;2.55;;;0.90;;
25437;SDS011;13364;49.084;9.978;2024-02-15T12:03:24;1.02;;;0.60;;
25437;SDS011;13364;49.084;9.978;2024-02-15T12:06:27;2.28;;;0.73;;
25437;SDS011;13364;49.084;9.978;2024-02-15T12:09:13;0.77;;;0.60;;
25437;SDS011;13364;49.084;9.978;2024-02-15T12:12:04;1.50;;;0.90;;
25437;SDS011;13364;49.084;9.978;2024-02-15T12:14:50;3.30;;;0.98;;
25437;SDS011;13364;49.084;9.978;2024-02-15T12:17:42;2.85;;;0.93;;
25437;SDS011;13364;49.084;9.978;2024-02-15T12:20:27;1.55;;;0.73;;
25437;SDS011;13364;49.084;9.978;2024-02-15T12:22:55;1.33;;;0.77;;
25437;SDS011;13364;49.084;9.978;2024-02-15T12:25:22;2.15;;;0.70;;
25437;SDS011;13364;49.084;9.978;2024-02-15T12:27:55;4.53;;;1.10;;
25437;SDS011;13364;49.084;9.978;2024-02-15T12:30:22;2.35;;;1.05;;
25437;SDS011;13364;49.084;9.978;2024-02-15T12:32:52;2.47;;;0.90;;
25437;SDS011;13364;49.084;9.978;2024-02-15T12:35:35;2.70;;;0.82;;
25437;SDS011;13364;49.084;9.978;2024-02-15T12:38:02;3.75;;;0.95;;
25437;SDS011;13364;49.084;9.978;2024-02-15T12:40:36;1.33;;;0.77;;
25437;SDS011;13364;49.084;9.978;2024-02-15T12:43:05;1.33;;;0.98;;
25437;SDS011;13364;49.084;9.978;2024-02-15T12:45:32;4.60;;;0.88;;
25437;SDS011;13364;49.084;9.978;2024-02-15T12:48:03;3.33;;;0.80;;
25437;SDS011;13364;49.084;9.978;2024-02-15T12:50:32;3.25;;;0.93;;
25437;SDS011;13364;49.084;9.978;2024-02-15T12:53:00;2.15;;;0.90;;
25437;SDS011;13364;49.084;9.978;2024-02-15T12:55:32;4.07;;;1.08;;
25437;SDS011;13364;49.084;9.978;2024-02-15T12:58:02;0.98;;;0.70;;
25437;SDS011;13364;49.084;9.978;2024-02-15T13:00:30;0.95;;;0.60;;
25437;SDS011;13364;49.084;9.978;2024-02-15T13:03:01;1.95;;;0.70;;
25437;SDS011;13364;49.084;9.978;2024-02-15T13:05:30;1.70;;;0.95;;
25437;SDS011;13364;49.084;9.978;2024-02-15T13:07:57;3.58;;;0.90;;
25437;SDS011;13364;49.084;9.978;2024-02-15T13:10:24;2.30;;;0.82;;
25437;SDS011;13364;49.084;9.978;2024-02-15T13:12:52;3.25;;;1.10;;
25437;SDS011;13364;49.084;9.978;2024-02-15T13:15:19;1.65;;;0.80;;
25437;SDS011;13364;49.084;9.978;2024-02-15T13:17:48;3.88;;;1.08;;
25437;SDS011;13364;49.084;9.978;2024-02-15T13:20:17;3.92;;;0.90;;
25437;SDS011;13364;49.084;9.978;2024-02-15T13:22:46;2.43;;;1.00;;
25437;SDS011;13364;49.084;9.978;2024-02-15T13:25:16;2.08;;;1.05;;
25437;SDS011;13364;49.084;9.978;2024-02-15T13:27:43;1.02;;;0.75;;
25437;SDS011;13364;49.084;9.978;2024-02-15T13:30:12;1.63;;;0.80;;
25437;SDS011;13364;49.084;9.978;2024-02-15T13:32:40;4.35;;;1.20;;
25437;SDS011;13364;49.084;9.978;2024-02-15T13:35:08;4.22;;;1.10;;
25437;SDS011;13364;49.084;9.978;2024-02-15T13:37:46;1.75;;;0.70;;
25437;SDS011;13364;49.084;9.978;2024-02-15T13:40:16;1.17;;;1.08;;
25437;SDS011;13364;49.084;9.978;2024-02-15T13:42:46;1.80;;;0.80;;
25437;SDS011;13364;49.084;9.978;2024-02-15T13:45:20;3.53;;;0.82;;
25437;SDS011;13364;49.084;9.978;2024-02-15T13:47:51;2.10;;;0.70;;
25437;SDS011;13364;49.084;9.978;2024-02-15T13:50:22;1.75;;;0.90;;
25437;SDS011;13364;49.084;9.978;2024-02-15T13:52:50;1.52;;;0.70;;
25437;SDS011;13364;49.084;9.978;2024-02-15T13:55:17;2.60;;;0.95;;
25437;SDS011;13364;49.084;9.978;2024-02-15T13:57:45;1.38;;;0.60;;
25437;SDS011;13364;49.084;9.978;2024-02-15T14:00:16;2.58;;;1.00;;
25437;SDS011;13364;49.084;9.978;2024-02-15T14:02:56;0.65;;;0.63;;
25437;SDS011;13364;49.084;9.978;2024-02-15T14:05:25;1.55;;;0.80;;
25437;SDS011;13364;49.084;9.978;2024-02-15T14:07:55;1.25;;;0.70;;
25437;SDS011;13364;49.084;9.978;2024-02-15T14:10:24;0.85;;;0.73;;
25437;SDS011;13364;49.084;9.978;2024-02-15T14:12:55;1.92;;;0.70;;
25437;SDS011;13364;49.084;9.978;2024-02-15T14:15:24;4.13;;;1.20;;
25437;SDS011;13364;49.084;9.978;2024-02-15T14:17:52;6.53;;;1.23;;
25437;SDS011;13364;49.084;9.978;2024-02-15T14:20:19;1.02;;;0.60;;
25437;SDS011;13364;49.084;9.978;2024-02-15T14:22:48;1.73;;;0.75;;
25437;SDS011;13364;49.084;9.978;2024-02-15T14:25:22;2.28;;;0.80;;
25437;SDS011;13364;49.084;9.978;2024-02-15T14:27:49;2.38;;;0.77;;
25437;SDS011;13364;49.084;9.978;2024-02-15T14:30:16;1.60;;;0.70;;
25437;SDS011;13364;49.084;9.978;2024-02-15T14:33:01;2.15;;;0.77;;
25437;SDS011;13364;49.084;9.978;2024-02-15T14:35:35;3.53;;;0.85;;
25437;SDS011;13364;49.084;9.978;2024-02-15T14:38:05;1.52;;;0.70;;
25437;SDS011;13364;49.084;9.978;2024-02-15T14:40:39;3.30;;;1.05;;
25437;SDS011;13364;49.084;9.978;2024-02-15T14:43:11;2.78;;;0.82;;
25437;SDS011;13364;49.084;9.978;2024-02-15T14:45:45;1.33;;;1.00;;
25437;SDS011;13364;49.084;9.978;2024-02-15T14:48:12;2.20;;;0.90;;
25437;SDS011;13364;49.084;9.978;2024-02-15T14:50:40;4.60;;;0.70;;
25437;SDS011;13364;49.084;9.978;2024-02-15T14:53:08;3.22;;;0.95;;
25437;SDS011;13364;49.084;9.978;2024-02-15T14:55:35;2.40;;;0.98;;
25437;SDS011;13364;49.084;9.978;2024-02-15T14:58:08;2.10;;;1.00;;
25437;SDS011;13364;49.084;9.978;2024-02-15T15:00:39;1.02;;;0.75;;
25437;SDS011;13364;49.084;9.978;2024-02-15T15:03:09;2.08;;;0.93;;
25437;SDS011;13364;49.084;9.978;2024-02-15T15:05:38;1.42;;;1.10;;
25437;SDS011;13364;49.084;9.978;2024-02-15T15:08:27;3.05;;;0.75;;
25437;SDS011;13364;49.084;9.978;2024-02-15T15:11:13;2.60;;;0.70;;
25437;SDS011;13364;49.084;9.978;2024-02-15T15:13:58;1.33;;;0.90;;
25437;SDS011;13364;49.084;9.978;2024-02-15T15:16:25;2.10;;;0.80;;
25437;SDS011;13364;49.084;9.978;2024-02-15T15:18:54;1.20;;;0.60;;
25437;SDS011;13364;49.084;9.978;2024-02-15T15:21:22;2.17;;;0.93;;
25437;SDS011;13364;49.084;9.978;2024-02-15T15:23:54;2.15;;;0.90;;
25437;SDS011;13364;49.084;9.978;2024-02-15T15:26:21;2.90;;;0.77;;
25437;SDS011;13364;49.084;9.978;2024-02-15T15:28:48;1.83;;;1.13;;
25437;SDS011;13364;49.084;9.978;2024-02-15T15:31:16;2.47;;;1.13;;
25437;SDS011;13364;49.084;9.978;2024-02-15T15:33:43;2.70;;;1.23;;
25437;SDS011;13364;49.084;9.978;2024-02-15T15:36:11;1.60;;;0.70;;
25437;SDS011;13364;49.084;9.978;2024-02-15T15:38:38;1.10;;;0.70;;
25437;SDS011;13364;49.084;9.978;2024-02-15T15:41:09;2.92;;;0.95;;
25437;SDS011;13364;49.084;9.978;2024-02-15T15:43:36;3.35;;;1.20;;
25437;SDS011;13364;49.084;9.978;2024-02-15T15:46:04;1.95;;;1.10;;
25437;SDS011;13364;49.084;9.978;2024-02-15T15:48:31;1.80;;;1.20;;
25437;SDS011;13364;49.084;9.978;2024-02-15T15:51:00;2.30;;;1.27;;
25437;SDS011;13364;49.084;9.978;2024-02-15T15:53:31;3.15;;;1.27;;
25437;SDS011;13364;49.084;9.978;2024-02-15T15:56:00;2.05;;;1.42;;
25437;SDS011;13364;49.084;9.978;2024-02-15T15:58:26;4.05;;;1.48;;
25437;SDS011;13364;49.084;9.978;2024-02-15T16:00:53;2.40;;;1.42;;
25437;SDS011;13364;49.084;9.978;2024-02-15T16:03:20;3.63;;;2.38;;
25437;SDS011;13364;49.084;9.978;2024-02-15T16:05:49;5.13;;;2.17;;
25437;SDS011;13364;49.084;9.978;2024-02-15T16:08:16;3.97;;;1.75;;
25437;SDS011;13364;49.084;9.978;2024-02-15T16:10:43;2.50;;;1.20;;
25437;SDS011;13364;49.084;9.978;2024-02-15T16:13:11;1.95;;;1.30;;
25437;SDS011;13364;49.084;9.978;2024-02-15T16:15:38;3.83;;;1.80;;
25437;SDS011;13364;49.084;9.978;2024-02-15T16:18:06;4.93;;;2.00;;
25437;SDS011;13364;49.084;9.978;2024-02-15T16:20:34;4.68;;;2.10;;
25437;SDS011;13364;49.084;9.978;2024-02-15T16:23:01;1.88;;;1.60;;
25437;SDS011;13364;49.084;9.978;2024-02-15T16:25:28;3.40;;;1.45;;
25437;SDS011;13364;49.084;9.978;2024-02-15T16:27:54;3.60;;;1.27;;
25437;SDS011;13364;49.084;9.978;2024-02-15T16:30:22;3.00;;;1.13;;
25437;SDS011;13364;49.084;9.978;2024-02-15T16:32:49;2.40;;;1.40;;
25437;SDS011;13364;49.084;9.978;2024-02-15T16:35:16;1.33;;;0.98;;
25437;SDS011;13364;49.084;9.978;2024-02-15T16:37:46;1.42;;;1.20;;
25437;SDS011;13364;49.084;9.978;2024-02-15T16:40:14;2.25;;;1.27;;
25437;SDS011;13364;49.084;9.978;2024-02-15T16:42:41;2.15;;;1.10;;
25437;SDS011;13364;49.084;9.978;2024-02-15T16:45:10;4.10;;;1.10;;
25437;SDS011;13364;49.084;9.978;2024-02-15T16:50:12;3.13;;;1.52;;
25437;SDS011;13364;49.084;9.978;2024-02-15T16:52:39;2.53;;;1.50;;
25437;SDS011;13364;49.084;9.978;2024-02-15T16:55:09;1.67;;;1.13;;
25437;SDS011;13364;49.084;9.978;2024-02-15T16:57:36;2.40;;;1.55;;
25437;SDS011;13364;49.084;9.978;2024-02-15T17:00:04;5.07;;;1.60;;
25437;SDS011;13364;49.084;9.978;2024-02-15T17:02:33;2.85;;;1.70;;
25437;SDS011;13364;49.084;9.978;2024-02-15T17:05:01;3.03;;;1.25;;
25437;SDS011;13364;49.084;9.978;2024-02-15T17:07:30;4.73;;;1.70;;
25437;SDS011;13364;49.084;9.978;2024-02-15T17:09:57;3.58;;;1.52;;
25437;SDS011;13364;49.084;9.978;2024-02-15T17:12:24;5.07;;;2.08;;
25437;SDS011;13364;49.084;9.978;2024-02-15T17:14:51;3.58;;;1.98;;
25437;SDS011;13364;49.084;9.978;2024-02-15T17:17:18;4.68;;;1.73;;
25437;SDS011;13364;49.084;9.978;2024-02-15T17:19:44;4.78;;;1.95;;
25437;SDS011;13364;49.084;9.978;2024-02-15T17:22:12;9.68;;;4.18;;
25437;SDS011;13364;49.084;9.978;2024-02-15T17:24:41;6.78;;;2.92;;
25437;SDS011;13364;49.084;9.978;2024-02-15T17:27:07;5.30;;;3.05;;
25437;SDS011;13364;49.084;9.978;2024-02-15T17:29:34;4.47;;;2.30;;
25437;SDS011;13364;49.084;9.978;2024-02-15T17:32:01;4.15;;;1.92;;
25437;SDS011;13364;49.084;9.978;2024-02-15T17:34:28;3.13;;;2.08;;
25437;SDS011;13364;49.084;9.978;2024-02-15T17:36:57;5.10;;;2.15;;
25437;SDS011;13364;49.084;9.978;2024-02-15T17:39:26;2.75;;;1.58;;
25437;SDS011;13364;49.084;9.978;2024-02-15T17:41:53;2.90;;;1.95;;
25437;SDS011;13364;49.084;9.978;2024-02-15T17:44:20;5.10;;;2.10;;
25437;SDS011;13364;49.084;9.978;2024-02-15T17:46:48;6.68;;;3.47;;
25437;SDS011;13364;49.084;9.978;2024-02-15T17:49:16;4.38;;;2.88;;
25437;SDS011;13364;49.084;9.978;2024-02-15T17:51:43;7.13;;;3.55;;
25437;SDS011;13364;49.084;9.978;2024-02-15T17:54:12;4.57;;;2.55;;
25437;SDS011;13364;49.084;9.978;2024-02-15T17:56:39;5.35;;;2.80;;
25437;SDS011;13364;49.084;9.978;2024-02-15T17:59:06;3.53;;;1.85;;
25437;SDS011;13364;49.084;9.978;2024-02-15T18:01:36;4.68;;;2.88;;
25437;SDS011;13364;49.084;9.978;2024-02-15T18:04:05;3.65;;;2.63;;
25437;SDS011;13364;49.084;9.978;2024-02-15T18:06:32;5.63;;;2.80;;
25437;SDS011;13364;49.084;9.978;2024-02-15T18:08:59;5.15;;;2.40;;
25437;SDS011;13364;49.084;9.978;2024-02-15T18:11:26;2.83;;;1.98;;
25437;SDS011;13364;49.084;9.978;2024-02-15T18:13:53;3.78;;;2.25;;
25437;SDS011;13364;49.084;9.978;2024-02-15T18:16:21;3.83;;;1.95;;
25437;SDS011;13364;49.084;9.978;2024-02-15T18:18:48;4.43;;;2.83;;
25437;SDS011;13364;49.084;9.978;2024-02-15T18:21:16;2.42;;;2.03;;
25437;SDS011;13364;49.084;9.978;2024-02-15T18:23:43;4.30;;;2.90;;
25437;SDS011;13364;49.084;9.978;2024-02-15T18:26:11;3.13;;;2.30;;
25437;SDS011;13364;49.084;9.978;2024-02-15T18:28:38;3.85;;;2.72;;
25437;SDS011;13364;49.084;9.978;2024-02-15T18:31:05;6.07;;;2.45;;
25437;SDS011;13364;49.084;9.978;2024-02-15T18:36:06;2.75;;;2.20;;
25437;SDS011;13364;49.084;9.978;2024-02-15T18:38:35;6.82;;;2.45;;
25437;SDS011;13364;49.084;9.978;2024-02-15T18:41:02;4.63;;;2.30;;
25437;SDS011;13364;49.084;9.978;2024-02-15T18:43:35;3.58;;;2.25;;
25437;SDS011;13364;49.084;9.978;2024-02-15T18:46:02;4.47;;;2.50;;
25437;SDS011;13364;49.084;9.978;2024-02-15T18:48:31;5.10;;;2.35;;
25437;SDS011;13364;49.084;9.978;2024-02-15T18:50:58;3.05;;;2.05;;
25437;SDS011;13364;49.084;9.978;2024-02-15T18:53:25;5.82;;;2.60;;
25437;SDS011;13364;49.084;9.978;2024-02-15T18:55:52;3.30;;;2.38;;
25437;SDS011;13364;49.084;9.978;2024-02-15T18:58:21;3.50;;;3.00;;
25437;SDS011;13364;49.084;9.978;2024-02-15T19:00:51;3.70;;;2.75;;
25437;SDS011;13364;49.084;9.978;2024-02-15T19:03:24;4.18;;;2.50;;
25437;SDS011;13364;49.084;9.978;2024-02-15T19:05:51;4.60;;;2.70;;
25437;SDS011;13364;49.084;9.978;2024-02-15T19:08:18;3.97;;;2.65;;
25437;SDS011;13364;49.084;9.978;2024-02-15T19:10:46;5.13;;;2.55;;
25437;SDS011;13364;49.084;9.978;2024-02-15T19:13:13;3.13;;;2.55;;
25437;SDS011;13364;49.084;9.978;2024-02-15T19:15:40;4.47;;;2.70;;
25437;SDS011;13364;49.084;9.978;2024-02-15T19:18:07;4.22;;;3.03;;
25437;SDS011;13364;49.084;9.978;2024-02-15T19:20:37;5.88;;;3.70;;
25437;SDS011;13364;49.084;9.978;2024-02-15T19:23:04;8.07;;;3.67;;
25437;SDS011;13364;49.084;9.978;2024-02-15T19:28:00;4.32;;;2.95;;
25437;SDS011;13364;49.084;9.978;2024-02-15T19:30:31;3.17;;;2.10;;
25437;SDS011;13364;49.084;9.978;2024-02-15T19:32:58;4.70;;;2.42;;
25437;SDS011;13364;49.084;9.978;2024-02-15T19:35:26;4.10;;;2.10;;
25437;SDS011;13364;49.084;9.978;2024-02-15T19:37:53;2.70;;;2.05;;
25437;SDS011;13364;49.084;9.978;2024-02-15T19:40:19;3.25;;;2.17;;
25437;SDS011;13364;49.084;9.978;2024-02-15T19:42:46;5.40;;;2.90;;
25437;SDS011;13364;49.084;9.978;2024-02-15T19:45:16;5.80;;;2.78;;
25437;SDS011;13364;49.084;9.978;2024-02-15T19:50:13;4.18;;;2.30;;
25437;SDS011;13364;49.084;9.978;2024-02-15T19:52:42;2.70;;;2.03;;
25437;SDS011;13364;49.084;9.978;2024-02-15T19:55:09;4.53;;;2.92;;
25437;SDS011;13364;49.084;9.978;2024-02-15T19:57:37;4.47;;;2.72;;
25437;SDS011;13364;49.084;9.978;2024-02-15T20:00:03;5.20;;;2.38;;
25437;SDS011;13364;49.084;9.978;2024-02-15T20:02:33;3.42;;;2.10;;
25437;SDS011;13364;49.084;9.978;2024-02-15T20:05:01;2.92;;;2.10;;
25437;SDS011;13364;49.084;9.978;2024-02-15T20:07:29;4.10;;;2.17;;
25437;SDS011;13364;49.084;9.978;2024-02-15T20:09:56;3.42;;;2.17;;
25437;SDS011;13364;49.084;9.978;2024-02-15T20:12:23;3.33;;;2.65;;
25437;SDS011;13364;49.084;9.978;2024-02-15T20:14:50;4.68;;;2.20;;
25437;SDS011;13364;49.084;9.978;2024-02-15T20:17:17;3.95;;;2.33;;
25437;SDS011;13364;49.084;9.978;2024-02-15T20:19:44;7.38;;;2.63;;
25437;SDS011;13364;49.084;9.978;2024-02-15T20:22:11;4.13;;;2.42;;
25437;SDS011;13364;49.084;9.978;2024-02-15T20:24:39;4.00;;;2.60;;
25437;SDS011;13364;49.084;9.978;2024-02-15T20:27:06;4.30;;;2.72;;
25437;SDS011;13364;49.084;9.978;2024-02-15T20:29:33;4.63;;;2.17;;
25437;SDS011;13364;49.084;9.978;2024-02-15T20:32:01;4.47;;;2.25;;
25437;SDS011;13364;49.084;9.978;2024-02-15T20:34:28;3.10;;;2.38;;
25437;SDS011;13364;49.084;9.978;2024-02-15T20:36:55;2.30;;;2.05;;
25437;SDS011;13364;49.084;9.978;2024-02-15T20:39:24;3.10;;;2.10;;
25437;SDS011;13364;49.084;9.978;2024-02-15T20:41:51;3.38;;;2.40;;